Time;durP1;ratioP1;P1;durP2;ratioP2;P2;SDS_P1;SDS_P2;PMS_P1;PMS_P2;Temp;Humidity;BMP_temperature;BMP_pressure;BME280_temperature;BME280_humidity;BME280_pressure;Samples;Min_cycle;Max_cycle;Signal;HPM_P1;HPM_P2
2023/12/25 00:00:34;;;;;;;1.55;0.40;;;;;;;10.69;100.00;99278.06;7418606;19;20041;-69
2023/12/25 00:03:02;;;;;;;0.55;0.40;;;;;;;10.74;100.00;99275.22;7412674;19;20404;-69
2023/12/25 00:05:33;;;;;;;0.75;0.40;;;;;;;10.78;100.00;99281.19;7415373;19;20014;-70
2023/12/25 00:08:02;;;;;;;1.08;0.43;;;;;;;10.84;100.00;99276.53;7414216;19;20014;-69
2023/12/25 00:10:30;;;;;;;1.95;0.52;;;;;;;10.86;100.00;99255.47;7411060;19;20017;-72
2023/12/25 00:12:59;;;;;;;0.95;0.52;;;;;;;10.97;100.00;99260.19;7414451;19;20014;-70
2023/12/25 00:15:27;;;;;;;2.38;0.70;;;;;;;11.02;100.00;99289.69;7396986;19;20011;-69
2023/12/25 00:17:56;;;;;;;0.68;0.43;;;;;;;11.08;100.00;99292.88;7398773;19;20022;-69
2023/12/25 00:20:30;;;;;;;1.25;0.55;;;;;;;11.11;100.00;99293.66;7396620;19;20014;-69
2023/12/25 00:23:01;;;;;;;;;;;;;;;11.13;98.04;99313.66;7397183;19;20035;-68
2023/12/25 00:25:31;;;;;;;3.65;0.45;;;;;;;11.17;100.00;99296.84;7396356;19;19935;-69
2023/12/25 00:28:00;;;;;;;0.98;0.60;;;;;;;11.17;100.00;99314.38;7395680;19;20411;-68
2023/12/25 00:30:28;;;;;;;2.53;0.35;;;;;;;11.19;100.00;99309.91;7397654;19;20006;-68
2023/12/25 00:32:57;;;;;;;1.75;0.63;;;;;;;11.19;100.00;99307.28;7396081;19;20018;-70
2023/12/25 00:35:25;;;;;;;2.72;0.50;;;;;;;11.17;100.00;99330.97;7395827;19;20031;-70
2023/12/25 00:37:54;;;;;;;2.28;0.60;;;;;;;11.16;100.00;99297.78;7397872;19;20036;-70
2023/12/25 00:40:25;;;;;;;1.48;0.60;;;;;;;11.13;100.00;99302.31;7397456;19;20370;-70
2023/12/25 00:42:54;;;;;;;2.65;0.40;;;;;;;11.10;98.46;99316.44;7396439;19;20373;-70
2023/12/25 00:45:22;;;;;;;2.03;0.70;;;;;;;11.07;100.00;99300.84;7395748;19;20027;-70
2023/12/25 00:47:51;;;;;;;2.78;0.88;;;;;;;11.05;100.00;99285.16;7397581;19;20031;-71
2023/12/25 00:50:19;;;;;;;2.95;0.60;;;;;;;11.05;98.25;99297.44;7397382;19;20086;-70
2023/12/25 00:52:48;;;;;;;4.20;0.60;;;;;;;11.04;100.00;99301.81;7395501;19;20014;-69
2023/12/25 00:55:16;;;;;;;2.03;0.98;;;;;;;11.02;98.01;99297.56;7394403;19;20082;-69
2023/12/25 00:57:47;;;;;;;3.38;0.77;;;;;;;11.03;99.32;99315.00;7396881;19;20489;-69
2023/12/25 01:00:16;;;;;;;3.45;0.77;;;;;;;11.02;97.48;99300.19;7397270;19;20031;-69
2023/12/25 01:02:45;;;;;;;2.17;0.70;;;;;;;11.03;100.00;99297.50;7395105;19;20074;-69
2023/12/25 01:05:13;;;;;;;3.47;0.90;;;;;;;11.06;100.00;99281.59;7394892;19;20027;-70
2023/12/25 01:07:41;;;;;;;5.38;0.90;;;;;;;11.05;100.00;99285.16;7395052;19;20074;-71
2023/12/25 01:10:11;;;;;;;10.43;2.15;;;;;;;11.05;100.00;99294.81;7395099;19;20022;-70
2023/12/25 01:12:39;;;;;;;1.35;0.77;;;;;;;11.03;100.00;99292.25;7396713;19;20022;-70
2023/12/25 01:15:11;;;;;;;3.15;0.80;;;;;;;11.03;100.00;99294.00;7394167;19;20474;-70
2023/12/25 01:17:40;;;;;;;4.18;1.00;;;;;;;11.02;100.00;99293.19;7396555;19;20011;-70
2023/12/25 01:20:10;;;;;;;4.03;0.63;;;;;;;11.00;100.00;99291.53;7394682;19;20018;-70
2023/12/25 01:22:38;;;;;;;5.40;1.13;;;;;;;11.00;100.00;99296.78;7395718;19;20013;-70
2023/12/25 01:25:13;;;;;;;3.13;0.90;;;;;;;10.97;99.51;99292.53;7394299;19;20014;-70
2023/12/25 01:27:42;;;;;;;1.50;0.70;;;;;;;11.00;100.00;99300.25;7396243;19;20018;-70
2023/12/25 01:30:14;;;;;;;2.65;0.68;;;;;;;11.01;100.00;99319.50;7395547;19;20489;-70
2023/12/25 01:32:42;;;;;;;2.65;0.77;;;;;;;11.05;100.00;99328.94;7394643;19;20014;-70
2023/12/25 01:35:11;;;;;;;4.40;1.13;;;;;;;11.03;99.23;99344.75;7394111;19;20031;-70
2023/12/25 01:37:39;;;;;;;6.45;0.98;;;;;;;11.00;100.00;99401.78;7394004;19;20481;-70
2023/12/25 01:40:10;;;;;;;7.45;1.33;;;;;;;10.70;100.00;99387.34;7394080;19;20022;-69
2023/12/25 01:42:38;;;;;;;3.50;0.90;;;;;;;10.28;100.00;99362.00;7393862;19;20015;-70
2023/12/25 01:45:08;;;;;;;2.05;0.88;;;;;;;9.92;100.00;99370.47;7393571;19;20031;-70
2023/12/25 01:47:39;;;;;;;2.92;0.60;;;;;;;9.62;100.00;99361.19;7395553;19;20018;-70
2023/12/25 01:50:09;;;;;;;4.32;0.85;;;;;;;9.35;100.00;99377.97;7395737;19;20022;-69
2023/12/25 01:52:38;;;;;;;2.53;0.65;;;;;;;9.14;100.00;99356.97;7395278;19;20028;-70
2023/12/25 01:55:07;;;;;;;4.35;0.70;;;;;;;9.01;100.00;99374.03;7393700;19;20037;-69
2023/12/25 01:57:38;;;;;;;4.25;0.90;;;;;;;8.92;100.00;99394.38;7393303;19;20015;-70
2023/12/25 02:00:08;;;;;;;2.55;0.88;;;;;;;8.86;100.00;99394.63;7393163;19;20485;-70
2023/12/25 02:02:39;;;;;;;2.85;1.13;;;;;;;8.83;100.00;99386.00;7392744;19;20007;-70
2023/12/25 02:05:08;;;;;;;3.40;1.30;;;;;;;8.80;100.00;99358.22;7393143;19;20010;-70
2023/12/25 02:07:40;;;;;;;2.55;1.30;;;;;;;8.79;100.00;99357.34;7393557;19;20077;-70
2023/12/25 02:10:10;;;;;;;8.05;1.67;;;;;;;8.76;100.00;99372.31;7399840;19;20428;-69
2023/12/25 02:15:15;;;;;;;2.80;1.55;;;;;;;8.79;100.00;99364.34;7393272;19;20018;-68
2023/12/25 02:17:47;;;;;;;5.90;2.15;;;;;;;8.80;100.00;99359.06;7402088;19;20505;-67
2023/12/25 02:20:16;;;;;;;6.28;2.03;;;;;;;8.83;100.00;99359.88;7402409;19;20019;-68
2023/12/25 02:22:44;;;;;;;4.63;2.47;;;;;;;8.85;100.00;99343.22;7401591;19;20509;-67
2023/12/25 02:25:16;;;;;;;7.60;2.55;;;;;;;8.87;100.00;99344.00;7399105;19;20028;-67
2023/12/25 02:27:47;;;;;;;9.57;3.20;;;;;;;8.90;100.00;99348.28;7399597;19;20022;-68
2023/12/25 02:30:16;;;;;;;7.68;3.53;;;;;;;8.93;100.00;99353.38;7402296;19;20015;-67
2023/12/25 02:32:44;;;;;;;13.50;5.03;;;;;;;8.95;100.00;99355.03;7401704;19;20059;-68
2023/12/25 02:35:13;;;;;;;12.27;4.88;;;;;;;8.99;100.00;99341.84;7401434;19;20010;-68
2023/12/25 02:37:41;;;;;;;12.40;5.47;;;;;;;9.04;100.00;99350.38;7402730;19;20070;-68
2023/12/25 02:40:11;;;;;;;9.90;4.93;;;;;;;9.08;100.00;99351.97;7401309;19;20023;-67
2023/12/25 02:42:39;;;;;;;12.30;4.95;;;;;;;9.12;100.00;99343.06;7398398;19;20539;-66
2023/12/25 02:45:11;;;;;;;11.30;5.38;;;;;;;9.19;100.00;99341.09;7398568;19;20423;-66
2023/12/25 02:47:40;;;;;;;13.13;6.53;;;;;;;9.22;100.00;99352.28;7401481;19;20032;-66
2023/12/25 02:50:08;;;;;;;8.05;5.15;;;;;;;9.25;100.00;99344.31;7401877;19;20486;-67
2023/12/25 02:52:37;;;;;;;7.30;3.47;;;;;;;9.27;100.00;99321.53;7401843;19;20070;-65
2023/12/25 02:55:06;;;;;;;15.65;3.92;;;;;;;9.28;100.00;99331.09;7398358;19;20031;-66
2023/12/25 02:57:34;;;;;;;8.55;3.75;;;;;;;9.29;100.00;99331.97;7401107;19;20070;-66
2023/12/25 03:00:03;;;;;;;10.88;4.05;;;;;;;9.28;100.00;99338.94;7400538;19;20027;-66
2023/12/25 03:02:34;;;;;;;6.00;3.17;;;;;;;9.28;100.00;99338.94;7400963;19;20031;-66
2023/12/25 03:05:02;;;;;;;7.97;3.10;;;;;;;9.31;100.00;99342.38;7398063;19;20010;-66
2023/12/25 03:07:31;;;;;;;5.93;3.08;;;;;;;9.33;100.00;99338.78;7400730;19;20014;-66
2023/12/25 03:09:59;;;;;;;8.13;2.92;;;;;;;9.33;100.00;99335.31;7398067;19;20010;-66
2023/12/25 03:12:28;;;;;;;7.18;2.85;;;;;;;9.34;100.00;99337.00;7397594;19;20011;-67
2023/12/25 03:14:57;;;;;;;6.13;3.08;;;;;;;9.35;100.00;99333.47;7396952;19;20015;-66
2023/12/25 03:17:25;;;;;;;7.15;3.38;;;;;;;9.35;100.00;99336.09;7401118;19;20029;-66
2023/12/25 03:19:57;;;;;;;8.38;3.55;;;;;;;9.33;100.00;99335.31;7399904;19;20027;-66
2023/12/25 03:22:25;;;;;;;11.75;3.85;;;;;;;9.32;100.00;99337.06;7399892;19;20066;-67
2023/12/25 03:24:54;;;;;;;10.77;4.18;;;;;;;9.33;100.00;99332.72;7397680;19;20027;-66
2023/12/25 03:27:22;;;;;;;8.10;4.00;;;;;;;9.32;100.00;99344.91;7397208;19;20513;-67
2023/12/25 03:29:50;;;;;;;5.63;3.78;;;;;;;9.32;100.00;99333.63;7399898;19;20014;-66
2023/12/25 03:32:19;;;;;;;7.88;4.10;;;;;;;9.28;100.00;99328.47;7399849;19;20014;-66
2023/12/25 03:34:48;;;;;;;7.22;3.78;;;;;;;9.28;100.00;99351.19;7397274;19;20022;-66
2023/12/25 03:37:19;;;;;;;6.20;3.30;;;;;;;9.27;100.00;99344.25;7399327;19;20474;-66
2023/12/25 03:39:48;;;;;;;8.38;4.05;;;;;;;9.26;100.00;99346.03;7399298;19;20424;-66
2023/12/25 03:42:16;;;;;;;5.03;2.90;;;;;;;9.26;100.00;99355.63;7397254;19;20018;-67
2023/12/25 03:44:45;;;;;;;4.97;2.70;;;;;;;9.27;100.00;99355.56;7396958;19;20477;-68
2023/12/25 03:47:15;;;;;;;5.45;2.13;;;;;;;9.26;100.00;99350.38;7398989;19;20373;-67
2023/12/25 03:49:43;;;;;;;5.50;2.65;;;;;;;9.26;100.00;99366.97;7398926;19;20505;-67
2023/12/25 03:52:12;;;;;;;3.50;2.30;;;;;;;9.26;100.00;99356.50;7399313;19;20011;-68
2023/12/25 03:54:43;;;;;;;6.47;2.10;;;;;;;9.26;100.00;99361.72;7396532;19;20381;-67
2023/12/25 03:57:11;;;;;;;4.28;2.28;;;;;;;9.28;100.00;99365.13;7399063;19;20025;-68
2023/12/25 03:59:41;;;;;;;3.63;1.83;;;;;;;9.29;100.00;99371.22;7398866;19;20086;-68
2023/12/25 04:02:09;;;;;;;3.67;1.63;;;;;;;9.29;100.00;99366.00;7398840;19;20067;-67
2023/12/25 04:04:41;;;;;;;2.10;1.58;;;;;;;9.28;100.00;99361.66;7396025;19;20377;-67
2023/12/25 04:07:09;;;;;;;3.60;1.40;;;;;;;9.27;100.00;99355.56;7398870;19;20014;-67
2023/12/25 04:09:38;;;;;;;3.25;1.10;;;;;;;9.29;100.00;99361.59;7396041;19;20018;-67
2023/12/25 04:12:09;;;;;;;4.20;1.90;;;;;;;9.30;100.00;99346.72;7396348;19;20031;-68
2023/12/25 04:14:39;;;;;;;3.85;1.42;;;;;;;9.31;100.00;99347.59;7396187;19;20022;-68
2023/12/25 04:17:08;;;;;;;5.88;1.60;;;;;;;9.31;100.00;99335.34;7396374;19;20025;-68
2023/12/25 04:19:36;;;;;;;6.47;2.50;;;;;;;9.33;100.00;99349.25;7398088;19;20426;-68
2023/12/25 04:22:05;;;;;;;7.95;2.45;;;;;;;9.32;100.00;99331.00;7398272;19;20018;-67
2023/12/25 04:24:33;;;;;;;3.55;1.50;;;;;;;9.31;100.00;99321.44;7396557;19;20012;-67
2023/12/25 04:27:02;;;;;;;3.72;2.10;;;;;;;9.31;100.00;99324.06;7396099;19;20423;-67
2023/12/25 04:29:33;;;;;;;3.63;1.70;;;;;;;9.32;100.00;99325.75;7397998;19;20010;-67
2023/12/25 04:32:01;;;;;;;2.55;1.55;;;;;;;9.32;100.00;99325.75;7394682;19;20072;-67
2023/12/25 04:34:30;;;;;;;3.33;1.17;;;;;;;9.33;100.00;99335.31;7395741;19;20494;-67
2023/12/25 04:36:58;;;;;;;2.00;1.27;;;;;;;9.34;100.00;99334.38;7397699;19;20014;-67
2023/12/25 04:39:26;;;;;;;2.22;1.10;;;;;;;9.34;100.00;99334.38;7397229;19;20099;-67
2023/12/25 04:42:02;;;;;;;4.40;1.10;;;;;;;9.35;100.00;99328.25;7397621;19;20018;-67
2023/12/25 04:44:33;;;;;;;2.00;1.30;;;;;;;9.34;100.00;99334.38;7395979;19;20010;-67
2023/12/25 04:47:01;;;;;;;1.17;1.02;;;;;;;9.35;100.00;99343.94;7395980;19;20010;-67
2023/12/25 04:49:30;;;;;;;4.72;1.50;;;;;;;9.35;100.00;99338.72;7396899;19;20482;-68
2023/12/25 04:51:58;;;;;;;2.80;1.50;;;;;;;9.37;100.00;99348.22;7396041;19;20011;-67
2023/12/25 04:54:27;;;;;;;2.95;1.48;;;;;;;9.36;100.00;99337.81;7395822;19;20018;-67
2023/12/25 04:56:56;;;;;;;12.98;7.55;;;;;;;9.35;100.00;99331.72;7395358;19;20014;-67
2023/12/25 04:59:25;;;;;;;6.05;1.88;;;;;;;9.36;100.00;99340.41;7396915;19;20015;-67
2023/12/25 05:01:56;;;;;;;4.50;1.25;;;;;;;9.36;100.00;99338.66;7395216;19;20014;-68
2023/12/25 05:04:24;;;;;;;2.45;1.50;;;;;;;9.38;100.00;99346.47;7395458;19;20070;-67
2023/12/25 05:06:53;;;;;;;4.45;1.80;;;;;;;9.35;100.00;99355.28;7396303;19;20010;-67
2023/12/25 05:09:21;;;;;;;2.90;1.45;;;;;;;9.36;100.00;99369.22;7394908;19;20035;-67
2023/12/25 05:11:50;;;;;;;2.15;1.25;;;;;;;9.37;100.00;99360.47;7394879;19;20014;-68
2023/12/25 05:14:18;;;;;;;3.13;1.30;;;;;;;9.38;100.00;99368.25;7394033;19;20031;-68
2023/12/25 05:16:47;;;;;;;3.08;1.27;;;;;;;9.39;100.00;99358.63;7396216;19;20011;-67
2023/12/25 05:19:18;;;;;;;3.17;1.52;;;;;;;9.38;100.00;99365.63;7396153;19;20010;-67
2023/12/25 05:21:46;;;;;;;3.42;1.20;;;;;;;9.43;100.00;99365.47;7396027;19;20010;-68
2023/12/25 05:24:14;;;;;;;5.75;1.42;;;;;;;9.44;100.00;99369.78;7394776;19;20014;-67
2023/12/25 05:26:43;;;;;;;2.33;1.02;;;;;;;9.48;100.00;99384.44;7395707;19;20014;-68
2023/12/25 05:29:11;;;;;;;3.38;1.10;;;;;;;9.49;100.00;99380.94;7395774;19;20021;-68
2023/12/25 05:31:40;;;;;;;2.65;1.10;;;;;;;9.52;100.00;99387.81;7395948;19;20035;-68
2023/12/25 05:34:08;;;;;;;1.60;0.90;;;;;;;9.56;100.00;99395.47;7394555;19;20078;-67
2023/12/25 05:36:39;;;;;;;1.65;0.88;;;;;;;9.62;100.00;99404.84;7396043;19;20011;-68
2023/12/25 05:39:08;;;;;;;3.97;1.17;;;;;;;9.68;100.00;99382.81;7395565;19;20074;-68
2023/12/25 05:41:37;;;;;;;2.50;1.13;;;;;;;9.70;100.00;99387.06;7393012;19;20030;-68
2023/12/25 05:44:06;;;;;;;2.63;0.70;;;;;;;9.72;100.00;99366.91;7392688;19;20015;-68
2023/12/25 05:46:34;;;;;;;2.17;0.82;;;;;;;9.77;100.00;99392.94;7395642;19;20014;-67
2023/12/25 05:49:03;;;;;;;2.90;0.80;;;;;;;9.84;100.00;99383.88;7395178;19;20027;-69
2023/12/25 05:51:31;;;;;;;2.13;0.77;;;;;;;9.87;100.00;99373.31;7395019;19;20007;-68
2023/12/25 05:54:03;;;;;;;4.63;2.22;;;;;;;9.87;100.00;99375.91;7394252;19;20082;-68
2023/12/25 05:56:32;;;;;;;2.97;1.20;;;;;;;9.90;100.00;99375.78;7394961;19;20489;-69
2023/12/25 05:59:01;;;;;;;2.15;1.02;;;;;;;9.89;100.00;99392.41;7395131;19;20383;-68
2023/12/25 06:01:30;;;;;;;3.38;1.30;;;;;;;9.91;100.00;99395.00;7395102;19;20007;-70
2023/12/25 06:04:00;;;;;;;1.48;0.80;;;;;;;9.92;100.00;99412.38;7393978;19;20018;-69
2023/12/25 06:06:29;;;;;;;1.58;0.70;;;;;;;9.93;100.00;99408.84;7393773;19;20010;-69
2023/12/25 06:08:58;;;;;;;2.92;0.90;;;;;;;9.93;100.00;99412.34;7394832;19;20015;-69
2023/12/25 06:11:29;;;;;;;3.70;0.95;;;;;;;9.93;100.00;99417.59;7392979;19;20013;-68
2023/12/25 06:13:57;;;;;;;2.10;1.13;;;;;;;9.99;100.00;99413.84;7393180;19;20409;-70
2023/12/25 06:16:26;;;;;;;2.92;0.98;;;;;;;9.98;100.00;99422.63;7394641;19;20019;-69
2023/12/25 06:18:55;;;;;;;3.45;1.02;;;;;;;10.03;100.00;99419.81;7394253;19;20432;-70
2023/12/25 06:21:23;;;;;;;2.65;0.90;;;;;;;10.01;100.00;99427.75;7394692;19;20014;-69
2023/12/25 06:23:52;;;;;;;3.45;0.90;;;;;;;10.04;100.00;99421.53;7393570;19;20027;-69
2023/12/25 06:26:21;;;;;;;4.03;0.80;;;;;;;10.04;100.00;99432.84;7392750;19;20010;-69
2023/12/25 06:28:52;;;;;;;3.45;0.93;;;;;;;10.06;100.00;99438.03;7394393;19;20014;-69
2023/12/25 06:31:20;;;;;;;2.47;1.00;;;;;;;10.07;100.00;99438.00;7394922;19;20031;-69
2023/12/25 06:33:49;;;;;;;2.65;0.90;;;;;;;10.06;100.00;99435.41;7393056;19;20506;-69
2023/12/25 06:36:17;;;;;;;4.25;0.95;;;;;;;10.09;100.00;99444.00;7393910;19;20568;-69
2023/12/25 06:38:46;;;;;;;1.90;0.90;;;;;;;10.10;100.00;99421.28;7394162;19;20025;-69
2023/12/25 06:41:14;;;;;;;3.10;0.68;;;;;;;10.10;100.00;99429.16;7392195;19;20015;-69
2023/12/25 06:43:43;;;;;;;3.13;1.05;;;;;;;10.10;100.00;99427.38;7393047;19;20011;-69
2023/12/25 06:46:14;;;;;;;6.88;1.27;;;;;;;10.09;98.99;99446.63;7391904;19;20421;-69
2023/12/25 06:48:42;;;;;;;3.28;1.13;;;;;;;10.10;98.76;99463.22;7394535;19;20023;-69
2023/12/25 06:51:11;;;;;;;5.32;1.20;;;;;;;10.11;97.82;99464.94;7393684;19;20385;-69
2023/12/25 06:53:37;;;;;;;4.22;2.03;;;;;;;10.13;100.00;99446.53;7393354;19;20086;-69
2023/12/25 06:56:07;;;;;;;3.38;1.20;;;;;;;10.13;99.07;99447.34;7401185;19;20026;-69
2023/12/25 06:58:35;;;;;;;2.97;1.10;;;;;;;10.12;98.39;99453.50;7404278;19;20010;-69
2023/12/25 07:01:06;;;;;;;5.85;1.48;;;;;;;10.15;100.00;99457.78;7408519;19;20027;-69
2023/12/25 07:03:37;;;;;;;5.70;1.70;;;;;;;10.15;99.19;99490.09;7400184;19;20041;-69
2023/12/25 07:06:09;;;;;;;2.70;0.82;;;;;;;10.13;95.47;99457.00;7398631;19;20007;-69
2023/12/25 07:08:38;;;;;;;3.72;0.68;;;;;;;10.16;96.15;99486.56;7397974;19;20481;-69
2023/12/25 07:11:07;;;;;;;3.03;0.70;;;;;;;10.18;99.28;99474.22;7400651;19;20018;-70
2023/12/25 07:13:36;;;;;;;3.63;0.80;;;;;;;10.21;97.67;99482.00;7398900;19;20018;-70
2023/12/25 07:16:05;;;;;;;3.53;1.00;;;;;;;10.23;100.00;99485.38;7398485;19;20041;-69
2023/12/25 07:18:36;;;;;;;5.10;0.73;;;;;;;10.20;94.49;99480.28;7400097;19;20380;-69
2023/12/25 07:21:05;;;;;;;3.55;0.80;;;;;;;10.20;95.76;99496.00;7400565;19;20348;-69
2023/12/25 07:23:33;;;;;;;6.55;0.93;;;;;;;10.19;95.29;99499.53;7398769;19;20011;-70
2023/12/25 07:26:08;;;;;;;3.53;0.80;;;;;;;10.20;94.40;99500.41;7397587;19;20018;-70
2023/12/25 07:28:37;;;;;;;3.85;0.88;;;;;;;10.21;98.54;99502.97;7399946;19;20018;-70
2023/12/25 07:31:06;;;;;;;7.15;1.52;;;;;;;10.20;90.70;99508.28;7399708;19;20007;-70
2023/12/25 07:33:37;;;;;;;2.45;1.30;;;;;;;10.22;93.67;99511.66;7398571;19;20014;-69
2023/12/25 07:36:06;;;;;;;1.42;0.63;;;;;;;10.22;88.96;99512.53;7399565;19;20070;-69
2023/12/25 07:38:34;;;;;;;2.38;0.73;;;;;;;10.23;89.93;99506.34;7399766;19;20027;-69
2023/12/25 07:41:03;;;;;;;1.65;1.05;;;;;;;10.23;91.02;99522.06;7397247;19;20023;-69
2023/12/25 07:43:32;;;;;;;2.75;1.10;;;;;;;10.23;90.96;99524.69;7398148;19;20031;-69
2023/12/25 07:46:00;;;;;;;1.88;0.45;;;;;;;10.23;91.56;99558.78;7396715;19;20467;-67
2023/12/25 07:48:29;;;;;;;2.42;0.90;;;;;;;10.23;89.33;99547.44;7399298;19;20007;-70
2023/12/25 07:51:00;;;;;;;2.67;0.88;;;;;;;10.22;91.90;99550.97;7398905;19;20380;-70
2023/12/25 07:53:28;;;;;;;2.92;0.85;;;;;;;10.22;92.92;99564.97;7398616;19;20015;-69
2023/12/25 07:55:57;;;;;;;2.55;0.80;;;;;;;10.21;90.65;99565.88;7398961;19;20027;-68
2023/12/25 07:58:25;;;;;;;6.30;1.00;;;;;;;10.21;94.55;99581.59;7399114;19;20018;-67
2023/12/25 08:00:54;;;;;;;3.10;0.88;;;;;;;10.17;97.08;99585.22;7398984;19;20014;-69
2023/12/25 08:03:22;;;;;;;3.10;1.05;;;;;;;10.10;96.04;99594.25;7397918;19;20090;-70
2023/12/25 08:05:51;;;;;;;6.28;1.17;;;;;;;10.03;97.96;99613.72;7394145;19;20031;-68
2023/12/25 08:08:22;;;;;;;5.63;0.70;;;;;;;9.91;97.76;99607.19;7398547;19;20006;-69
2023/12/25 08:10:50;;;;;;;3.38;1.02;;;;;;;9.85;99.07;99607.44;7397994;19;20481;-70
2023/12/25 08:13:19;;;;;;;4.10;1.20;;;;;;;9.76;100.00;99606.00;7396253;19;20010;-68
2023/12/25 08:15:48;;;;;;;3.67;0.93;;;;;;;9.71;96.59;99607.94;7396301;19;20486;-68
2023/12/25 08:18:16;;;;;;;3.50;1.13;;;;;;;9.72;100.00;99588.69;7396359;19;20073;-68
2023/12/25 08:20:45;;;;;;;3.58;1.05;;;;;;;9.72;99.55;99607.03;7398195;19;20368;-68
2023/12/25 08:23:13;;;;;;;2.88;1.00;;;;;;;9.72;99.00;99614.88;7397909;19;20015;-68
2023/12/25 08:25:51;;;;;;;2.92;1.00;;;;;;;9.73;96.41;99606.97;7397413;19;20031;-68
2023/12/25 08:28:20;;;;;;;2.75;0.90;;;;;;;9.76;97.62;99613.84;7398461;19;20007;-69
2023/12/25 08:30:48;;;;;;;2.05;0.98;;;;;;;9.78;95.66;99615.50;7397878;19;20011;-69
2023/12/25 08:33:17;;;;;;;2.15;1.08;;;;;;;9.85;98.57;99621.38;7396916;19;20019;-69
2023/12/25 08:35:45;;;;;;;2.05;1.08;;;;;;;9.87;96.22;99635.28;7396028;19;20014;-69
2023/12/25 08:38:14;;;;;;;4.35;1.00;;;;;;;9.90;97.86;99629.91;7396103;19;20015;-69
2023/12/25 08:40:42;;;;;;;4.03;1.00;;;;;;;9.92;97.14;99629.84;7398639;19;20019;-70
2023/12/25 08:43:13;;;;;;;2.17;1.00;;;;;;;9.93;100.00;99627.19;7397669;19;20372;-69
2023/12/25 08:45:42;;;;;;;3.55;1.00;;;;;;;9.96;100.00;99620.97;7397173;19;20066;-69
2023/12/25 08:48:10;;;;;;;3.60;1.05;;;;;;;9.95;99.10;99620.09;7397095;19;20082;-69
2023/12/25 08:50:39;;;;;;;1.83;0.80;;;;;;;9.94;100.00;99642.00;7397963;19;20082;-69
2023/12/25 08:53:08;;;;;;;6.18;1.40;;;;;;;9.93;100.00;99635.06;7398507;19;20104;-70
2023/12/25 08:55:36;;;;;;;5.93;1.00;;;;;;;9.92;100.00;99642.94;7399491;19;20082;-69
2023/12/25 08:58:06;;;;;;;3.78;1.10;;;;;;;9.85;100.00;99655.41;7398873;19;20035;-69
2023/12/25 09:00:37;;;;;;;5.72;1.63;;;;;;;9.80;100.00;99661.75;7395265;19;20529;-69
2023/12/25 09:03:06;;;;;;;5.82;1.20;;;;;;;9.74;100.00;99681.16;7396704;19;20014;-69
2023/12/25 09:05:35;;;;;;;4.30;1.05;;;;;;;9.64;100.00;99685.00;7395205;19;20074;-69
2023/12/25 09:08:03;;;;;;;1.48;1.15;;;;;;;9.52;100.00;99757.00;7397289;19;20014;-69
2023/12/25 09:10:31;;;;;;;5.68;0.90;;;;;;;9.45;100.00;99717.03;7408836;19;20010;-69
2023/12/25 09:13:00;;;;;;;2.08;0.95;;;;;;;9.37;100.00;99712.06;7396511;19;20006;-69
2023/12/25 09:15:29;;;;;;;4.15;1.83;;;;;;;9.27;100.00;99740.28;7396251;19;20212;-69
2023/12/25 09:18:00;;;;;;;1.88;0.70;;;;;;;9.20;100.00;99719.63;7396634;19;20018;-69
2023/12/25 09:20:29;;;;;;;3.28;1.23;;;;;;;9.13;100.00;99716.34;7397638;19;20485;-71
2023/12/25 09:22:57;;;;;;;4.13;1.08;;;;;;;9.07;100.00;99714.81;7397733;19;20484;-68
2023/12/25 09:25:26;;;;;;;2.65;1.00;;;;;;;9.04;100.00;99711.41;7395550;19;20018;-68
2023/12/25 09:28:03;;;;;;;2.28;1.10;;;;;;;9.02;100.00;99718.44;7396362;19;20052;-69
2023/12/25 09:30:31;;;;;;;1.58;1.00;;;;;;;8.99;100.00;99723.78;7396918;19;20006;-69
2023/12/25 09:33:03;;;;;;;2.25;0.93;;;;;;;8.94;100.00;99726.53;7396189;19;20023;-69
2023/12/25 09:35:31;;;;;;;4.68;2.10;;;;;;;8.90;100.00;99728.41;7396222;19;20017;-69
2023/12/25 09:38:00;;;;;;;4.53;2.38;;;;;;;8.88;99.68;99730.19;7394560;19;20014;-69
2023/12/25 09:40:28;;;;;;;2.67;1.00;;;;;;;8.86;98.76;99750.31;7393755;19;20393;-69
2023/12/25 09:42:57;;;;;;;2.00;1.10;;;;;;;8.89;99.53;99744.16;7395463;19;20023;-69
2023/12/25 09:45:26;;;;;;;1.77;0.80;;;;;;;8.91;98.42;99768.47;7395318;19;20027;-69
2023/12/25 09:48:04;;;;;;;3.45;1.30;;;;;;;8.93;98.96;99738.78;7395562;19;20010;-69
2023/12/25 09:50:33;;;;;;;2.80;1.23;;;;;;;8.94;98.56;99732.63;7395949;19;20014;-69
2023/12/25 09:53:03;;;;;;;4.32;1.10;;;;;;;8.99;100.00;99737.72;7395099;19;20010;-69
2023/12/25 09:55:32;;;;;;;2.72;1.33;;;;;;;9.00;100.00;99735.94;7395457;19;20070;-69
2023/12/25 09:58:05;;;;;;;2.15;0.77;;;;;;;9.04;100.00;99732.34;7397754;19;20006;-70
2023/12/25 10:00:33;;;;;;;2.53;0.88;;;;;;;9.04;98.22;99754.13;7396973;19;20110;-69
2023/12/25 10:03:06;;;;;;;1.73;0.80;;;;;;;9.07;97.60;99755.78;7394968;19;20010;-70
2023/12/25 10:05:35;;;;;;;5.00;0.90;;;;;;;9.12;98.71;99740.78;7397325;19;20027;-69
2023/12/25 10:08:03;;;;;;;2.60;0.82;;;;;;;9.15;98.10;99745.06;7395294;19;20474;-70
2023/12/25 10:10:32;;;;;;;2.38;1.10;;;;;;;9.20;100.00;99719.63;7396258;19;20066;-69
2023/12/25 10:13:00;;;;;;;2.72;0.85;;;;;;;9.23;98.77;99719.53;7395351;19;20473;-69
2023/12/25 10:15:30;;;;;;;1.88;0.90;;;;;;;9.27;100.00;99716.75;7393282;19;20018;-69
2023/12/25 10:18:08;;;;;;;5.82;1.30;;;;;;;9.31;97.56;99720.13;7394602;19;20474;-69
2023/12/25 10:20:37;;;;;;;3.15;1.30;;;;;;;9.34;98.59;99708.69;7396789;19;20076;-69
2023/12/25 10:23:13;;;;;;;3.17;1.60;;;;;;;9.39;96.82;99746.03;7394256;19;20018;-69
2023/12/25 10:25:44;;;;;;;4.75;1.10;;;;;;;9.44;100.00;99745.00;7392306;19;20037;-71
2023/12/25 10:28:13;;;;;;;2.35;0.85;;;;;;;9.44;95.30;99741.53;7394861;19;20010;-69
2023/12/25 10:30:42;;;;;;;2.25;0.98;;;;;;;9.47;97.25;99753.66;7401592;19;20014;-69
2023/12/25 10:33:15;;;;;;;4.75;1.10;;;;;;;9.51;97.96;99748.25;7401139;19;20021;-70
2023/12/25 10:35:44;;;;;;;1.42;0.88;;;;;;;9.55;99.28;99754.25;7402217;19;20011;-69
2023/12/25 10:38:12;;;;;;;2.42;0.95;;;;;;;9.58;98.87;99775.97;7401565;19;20006;-70
2023/12/25 10:40:41;;;;;;;2.40;1.13;;;;;;;9.60;100.00;99763.69;7401560;19;20015;-69
2023/12/25 10:43:09;;;;;;;3.40;1.10;;;;;;;9.62;96.12;99782.81;7401087;19;20031;-69
2023/12/25 10:45:38;;;;;;;2.08;1.23;;;;;;;9.66;99.65;99774.84;7398840;19;20348;-69
2023/12/25 10:48:09;;;;;;;5.22;1.50;;;;;;;9.68;94.17;99775.66;7400846;19;20018;-66
2023/12/25 10:50:41;;;;;;;2.33;1.05;;;;;;;9.65;92.75;99773.97;7399680;19;20350;-65
2023/12/25 10:53:12;;;;;;;2.53;0.90;;;;;;;9.71;95.13;99791.28;7401904;19;20044;-65
2023/12/25 10:55:43;;;;;;;5.20;1.05;;;;;;;9.74;94.97;99749.25;7403229;19;20010;-65
2023/12/25 10:58:16;;;;;;;4.22;1.83;;;;;;;9.72;89.29;99796.44;7399541;19;20031;-64
2023/12/25 11:00:49;;;;;;;5.97;1.55;;;;;;;9.75;92.25;99790.25;7402109;19;20014;-65
2023/12/25 11:03:18;;;;;;;1.75;0.75;;;;;;;9.74;90.67;99780.69;7400699;19;20018;-66
2023/12/25 11:05:51;;;;;;;3.78;0.95;;;;;;;9.75;91.34;99792.88;7400999;19;20007;-66
2023/12/25 11:08:20;;;;;;;5.35;1.13;;;;;;;9.76;94.81;99794.59;7402799;19;20017;-66
2023/12/25 11:10:49;;;;;;;1.25;0.95;;;;;;;9.74;95.75;99796.41;7402895;19;20485;-66
2023/12/25 11:13:18;;;;;;;1.98;0.95;;;;;;;9.71;91.86;99802.59;7399414;19;20011;-65
2023/12/25 11:15:46;;;;;;;3.30;1.20;;;;;;;9.75;92.73;99808.59;7399684;19;20017;-68
2023/12/25 11:18:15;;;;;;;3.45;1.23;;;;;;;9.75;95.06;99796.34;7401790;19;20034;-69
2023/12/25 11:21:03;;;;;;;3.83;1.20;;;;;;;9.75;95.80;99798.09;7401321;19;20033;-69
2023/12/25 11:23:37;;;;;;;2.28;0.95;;;;;;;9.75;95.39;99783.25;7398378;19;20011;-69
2023/12/25 11:26:08;;;;;;;2.35;1.00;;;;;;;9.75;95.06;99787.63;7406776;19;20023;-69
2023/12/25 11:28:38;;;;;;;2.13;0.90;;;;;;;9.74;95.26;99793.78;7406333;19;20023;-67
2023/12/25 11:31:07;;;;;;;2.58;0.80;;;;;;;9.77;95.51;99796.31;7400180;19;20022;-69
2023/12/25 11:33:46;;;;;;;3.58;1.38;;;;;;;9.76;95.07;99805.06;7398484;19;20478;-69
2023/12/25 11:36:16;;;;;;;4.05;1.48;;;;;;;9.78;97.05;99792.75;7400333;19;20014;-69
2023/12/25 11:38:48;;;;;;;2.47;1.35;;;;;;;9.80;98.23;99796.19;7400400;19;20027;-69
2023/12/25 11:41:19;;;;;;;5.88;1.10;;;;;;;9.82;98.23;99812.72;7400946;19;20021;-68
2023/12/25 11:43:49;;;;;;;2.38;1.13;;;;;;;9.85;95.01;99806.53;7399014;19;20018;-69
2023/12/25 11:46:19;;;;;;;2.65;1.00;;;;;;;9.86;96.38;99798.59;7399833;19;20014;-69